CST,Max TemperatureF,Mean TemperatureF,Min TemperatureF,Max Dew PointF,MeanDew PointF,Min DewpointF,Max Humidity, Mean Humidity, Min Humidity, Max Sea Level PressureIn, Mean Sea Level PressureIn, Min Sea Level PressureIn, Max VisibilityMiles, Mean VisibilityMiles, Min VisibilityMiles, Max Wind SpeedMPH, Mean Wind SpeedMPH, Max Gust SpeedMPH,PrecipitationIn, CloudCover, Events, WindDirDegrees
2012-12-1,82,73,64,72,65,63,94,80,54,30.18,30.13,30.09,10,10,10,16,5,,0.00,4,,152
2012-12-2,86,75,64,72,65,63,100,81,45,30.20,30.14,30.11,10,8,0,9,3,,0.00,3,Fog,130
2012-12-3,80,74,68,73,67,63,100,83,54,30.12,30.07,30.01,10,9,3,15,6,21,0.00,5,Rain,154
2012-12-4,80,72,64,73,67,63,100,92,65,30.18,30.12,30.05,10,5,0,12,3,26,0.00,6,Fog-Rain-Thunderstorm,120
2012-12-5,66,62,59,63,61,57,100,93,88,30.20,30.13,30.06,10,7,0,8,3,,0.00,7,Fog,351
2012-12-6,73,66,59,63,60,59,100,85,61,30.05,29.97,29.92,10,7,5,10,4,,0.00,6,,84
2012-12-7,80,70,60,70,65,61,100,88,61,29.93,29.88,29.83,10,8,0,12,2,,0.00,4,Fog,158
2012-12-8,82,74,66,72,67,66,100,86,58,29.94,29.89,29.84,10,9,3,14,4,,0.00,5,Fog-Rain,176
2012-12-9,78,71,64,73,69,64,100,88,78,29.94,29.87,29.82,10,7,1,14,7,,0.00,6,Fog-Rain,176
2012-12-10,73,58,41,72,38,23,100,60,37,30.12,29.99,29.82,10,8,1,22,14,29,0.00,5,Rain-Thunderstorm,325
2012-12-11,57,47,37,30,26,23,56,47,35,30.25,30.15,30.11,10,10,10,10,6,,0.00,4,,360
2012-12-12,62,50,39,32,28,12,65,47,15,30.36,30.30,30.24,10,10,10,7,3,,0.00,0,,31
2012-12-13,64,53,42,45,35,28,76,53,40,30.36,30.29,30.22,10,10,10,10,4,,0.00,2,,77
2012-12-14,69,62,55,66,57,45,88,81,63,30.22,30.09,29.96,10,9,6,15,7,24,0.00,7,,101
2012-12-15,78,74,69,70,68,66,94,85,74,29.98,29.93,29.88,10,9,7,16,10,23,0.00,7,,168
2012-12-16,73,68,62,72,66,63,100,96,88,29.92,29.83,29.76,10,7,1,23,6,32,0.00,7,Fog-Rain-Thunderstorm,194
2012-12-17,71,62,53,64,47,34,100,61,27,29.95,29.90,29.86,10,7,0,15,4,,0.00,2,Fog,285
2012-12-18,80,65,50,61,51,36,88,67,39,29.97,29.92,29.88,10,10,10,15,5,,0.00,0,Fog,173
2012-12-19,78,71,64,72,68,61,94,87,69,29.90,29.82,29.74,10,10,7,20,11,31,0.00,4,,170
2012-12-20,73,60,46,70,26,-9,88,39,7,30.46,30.20,29.80,10,9,1,34,17,52,0.00,4,Rain-Thunderstorm,317
2012-12-21,64,50,37,27,22,12,49,35,17,30.53,30.45,30.39,10,10,10,5,2,,0.00,3,,266
2012-12-22,69,54,39,55,40,25,73,59,37,30.40,30.29,30.14,10,10,10,14,3,,0.00,4,,139
2012-12-23,75,70,64,66,62,55,94,77,61,30.11,30.00,29.90,10,10,10,14,7,21,0.00,7,,189
2012-12-24,78,71,64,66,63,57,94,83,51,29.98,29.88,29.77,10,9,4,12,6,,0.00,6,Fog-Rain,203
2012-12-25,75,55,35,68,49,21,100,67,16,30.07,29.75,29.59,10,9,4,29,14,40,0.00,4,,248
2012-12-26,48,40,33,28,25,21,70,55,46,30.24,30.17,30.09,10,10,10,20,13,28,0.00,5,,327
2012-12-27,57,47,37,57,44,27,100,84,61,30.14,30.01,29.86,10,6,2,13,7,,0.00,7,Rain,56
2012-12-28,66,55,44,66,52,37,100,86,63,30.14,29.90,29.79,10,6,1,21,10,29,0.00,7,Rain,314
2012-12-29,50,44,37,37,24,12,81,49,27,30.46,30.37,30.15,10,10,10,17,12,,0.00,5,,332
2012-12-30,55,45,35,41,31,21,76,57,44,30.49,30.40,30.26,10,10,10,13,7,,0.00,5,,67
2012-12-31,68,58,48,68,57,37,100,91,42,30.26,30.05,29.95,10,6,2,14,9,,0.00,8,Rain-Thunderstorm,109